Celsius Mumbai — V7CU2 — position and weather

sailwx.info

Track history (hours):
 
Tides and Currents Weather Stations Pressure Air Temp Water Temp Dewpoint Dewpoint Depression Visibility Wind Speed Wind Dir Waves Ship Positions

Celsius Mumbai

Last reported at 2018-May-23 12:43 UTC. Time now 2018-May-26 14:09 UTC.
Position N 01°13' E 103°57'.

Length 144 m; draft 9.7 m.

Type: Ship (hazmat cat B). MMSI: 538005324.

Date/timePositionNaut miles runAvg speedWind from/ knotsBaromVisibWave heightAir tempDewpointWater temp
2018-May-23 12:43N 01°13' E 103°57'311.6
2018-May-23 12:29N 01°12' E 103°54'4 8.4
2018-May-23 11:58N 01°11' E 103°50'4 7.0
2018-May-23 11:27N 01°14' E 103°47'3 6.4
2018-May-23 11:00N 01°16' E 103°45'1 2.0
2018-May-23 10:28N 01°16' E 103°44'0 0.0
2018-May-23 09:55N 01°16' E 103°44'0 0.0
2018-May-23 09:28N 01°16' E 103°44'0 0.0
2018-May-23 08:58N 01°16' E 103°44'0 0.0
2018-May-23 08:28N 01°16' E 103°44'0 0.0
2018-May-23 07:58N 01°16' E 103°44'0 0.0
2018-May-23 07:28N 01°16' E 103°44'0 0.0
2018-May-23 06:58N 01°16' E 103°44'0 0.0
2018-May-23 06:28N 01°16' E 103°44'0 0.0
2018-May-23 05:58N 01°16' E 103°44'0 0.0
2018-May-23 05:25N 01°16' E 103°44'0 0.0
2018-May-23 04:55N 01°16' E 103°44'0 0.0
2018-May-23 03:01N 01°16' E 103°44'0 0.0
2018-May-23 02:58N 01°16' E 103°44'0 0.0
2018-May-23 02:28N 01°16' E 103°44'0 0.0
2018-May-23 00:55N 01°16' E 103°44'0 0.0
2018-May-23 00:19N 01°16' E 103°44'0 0.0
2018-May-22 22:52N 01°16' E 103°44'0 0.0
2018-May-22 22:22N 01°16' E 103°44'0 0.0
2018-May-22 21:10N 01°16' E 103°44'0 0.0
2018-May-22 20:43N 01°16' E 103°44'0 0.0
2018-May-22 20:16N 01°16' E 103°44'0 0.0
2018-May-22 19:58N 01°16' E 103°44'0 0.0
2018-May-22 19:25N 01°16' E 103°44'0 0.0
2018-May-22 18:55N 01°16' E 103°44'0 0.0
2018-May-22 18:25N 01°16' E 103°44'0 0.0
2018-May-22 17:55N 01°16' E 103°44'0 0.0
2018-May-22 17:25N 01°16' E 103°44'0 0.0
2018-May-22 16:55N 01°16' E 103°44'0 0.0
2018-May-22 16:28N 01°16' E 103°44'0 0.0
2018-May-22 15:58N 01°16' E 103°44'0 0.0
2018-May-22 15:28N 01°16' E 103°44'0 0.0
2018-May-22 14:55N 01°16' E 103°44'0 0.0
2018-May-22 14:28N 01°16' E 103°44'0 0.0
2018-May-22 13:58N 01°16' E 103°44'0 0.0
2018-May-22 13:28N 01°16' E 103°44'0 0.0
2018-May-22 12:46N 01°16' E 103°44'0 0.0
2018-May-22 12:22N 01°16' E 103°44'0 0.0
2018-May-22 11:58N 01°16' E 103°44'0 0.0
2018-May-22 11:22N 01°16' E 103°44'0 0.0
2018-May-22 10:55N 01°16' E 103°44'0 0.0
2018-May-22 10:16N 01°16' E 103°44'0 0.0
2018-May-22 09:58N 01°16' E 103°44'0 0.0
2018-May-22 05:10N 01°16' E 103°44'0 0.0
2018-May-22 04:49N 01°16' E 103°44'0 0.0
2018-May-22 04:07N 01°16' E 103°44'0 0.0
2018-May-22 03:43N 01°16' E 103°44'0 0.0
2018-May-22 03:25N 01°16' E 103°44'0 0.0
2018-May-22 02:58N 01°16' E 103°44'0 0.0
2018-May-22 02:19N 01°16' E 103°44'0 0.0
2018-May-22 01:58N 01°16' E 103°44'0 0.0
2018-May-22 01:25N 01°16' E 103°44'0 0.0
2018-May-22 00:52N 01°16' E 103°44'0 0.0
2018-May-22 00:25N 01°16' E 103°44'0 0.0
2018-May-21 23:55N 01°16' E 103°44'0 0.0
2018-May-21 23:28N 01°16' E 103°44'0 0.0
2018-May-21 22:55N 01°16' E 103°44'0 0.0
2018-May-21 22:25N 01°16' E 103°44'0 0.0
2018-May-21 21:58N 01°16' E 103°44'0 0.0
2018-May-21 21:25N 01°16' E 103°44'0 0.0
2018-May-21 20:49N 01°16' E 103°44'0 0.0
2018-May-21 20:28N 01°16' E 103°44'0 0.0
2018-May-21 19:55N 01°16' E 103°44'0 0.0
2018-May-21 19:25N 01°16' E 103°44'0 0.0
2018-May-21 18:55N 01°16' E 103°44'0 0.0
2018-May-21 18:28N 01°16' E 103°44'0 0.0
2018-May-21 17:49N 01°16' E 103°44'0 0.0
2018-May-21 17:25N 01°16' E 103°44'0 0.0
2018-May-21 16:58N 01°16' E 103°44'0 0.0
2018-May-21 16:25N 01°16' E 103°44'0 0.0
2018-May-21 15:55N 01°16' E 103°44'0 0.9
2018-May-21 15:30N 01°16' E 103°45'5 8.8
2018-May-21 15:00N 01°13' E 103°48'612.8
2018-May-21 14:30N 01°14' E 103°54'4 0.3
2018-May-21 01:01N 01°17' E 103°56'0 0.0
2018-May-21 00:55N 01°17' E 103°56'0 0.0
2018-May-21 00:28N 01°17' E 103°56'0 0.0
2018-May-20 23:58N 01°17' E 103°56'0 0.0
2018-May-20 23:28N 01°17' E 103°56'0 0.0
2018-May-20 22:58N 01°17' E 103°56'0 0.0
2018-May-20 22:28N 01°17' E 103°56'0 0.0
2018-May-20 21:59N 01°17' E 103°56'0 0.0
2018-May-20 21:10N 01°17' E 103°56'0 0.0
2018-May-20 20:55N 01°17' E 103°56'0 0.0
2018-May-20 20:28N 01°17' E 103°56'0 0.1
2018-May-20 19:55N 01°17' E 103°56'0 0.0
2018-May-20 19:25N 01°17' E 103°56'0 0.1
2018-May-20 18:52N 01°17' E 103°56'0 0.0
2018-May-20 18:28N 01°17' E 103°56'0 0.2
2018-May-20 17:59N 01°17' E 103°56'2 3.7
2018-May-20 17:30N 01°16' E 103°58'4 9.1
2018-May-20 17:00N 01°16' E 104°02'612.2
2018-May-20 16:29N 01°17' E 104°08'611.0
2018-May-20 15:58N 01°17' E 104°14'612.0
2018-May-20 15:28N 01°19' E 104°20'713.2
2018-May-20 14:58N 01°23' E 104°25'  
Track history (hours):
 
Tides and Currents Weather Stations Pressure Air Temp Water Temp Dewpoint Dewpoint Depression Visibility Wind Speed Wind Dir Waves Ship Positions

Celsius Mumbai

Last reported at 2018-May-23 12:43 UTC. Time now 2018-May-26 14:09 UTC.
Position N 01°13' E 103°57'.

Length 144 m; draft 9.7 m.

Type: Ship (hazmat cat B). MMSI: 538005324.

Date/timePositionNaut miles runAvg speedWind from/ knotsBaromVisibWave heightAir tempDewpointWater temp
2018-May-23 12:43N 01°13' E 103°57'311.6
2018-May-23 12:29N 01°12' E 103°54'4 8.4
2018-May-23 11:58N 01°11' E 103°50'4 7.0
2018-May-23 11:27N 01°14' E 103°47'3 6.4
2018-May-23 11:00N 01°16' E 103°45'1 2.0
2018-May-23 10:28N 01°16' E 103°44'0 0.0
2018-May-23 09:55N 01°16' E 103°44'0 0.0
2018-May-23 09:28N 01°16' E 103°44'0 0.0
2018-May-23 08:58N 01°16' E 103°44'0 0.0
2018-May-23 08:28N 01°16' E 103°44'0 0.0
2018-May-23 07:58N 01°16' E 103°44'0 0.0
2018-May-23 07:28N 01°16' E 103°44'0 0.0
2018-May-23 06:58N 01°16' E 103°44'0 0.0
2018-May-23 06:28N 01°16' E 103°44'0 0.0
2018-May-23 05:58N 01°16' E 103°44'0 0.0
2018-May-23 05:25N 01°16' E 103°44'0 0.0
2018-May-23 04:55N 01°16' E 103°44'0 0.0
2018-May-23 03:01N 01°16' E 103°44'0 0.0
2018-May-23 02:58N 01°16' E 103°44'0 0.0
2018-May-23 02:28N 01°16' E 103°44'0 0.0
2018-May-23 00:55N 01°16' E 103°44'0 0.0
2018-May-23 00:19N 01°16' E 103°44'0 0.0
2018-May-22 22:52N 01°16' E 103°44'0 0.0
2018-May-22 22:22N 01°16' E 103°44'0 0.0
2018-May-22 21:10N 01°16' E 103°44'0 0.0
2018-May-22 20:43N 01°16' E 103°44'0 0.0
2018-May-22 20:16N 01°16' E 103°44'0 0.0
2018-May-22 19:58N 01°16' E 103°44'0 0.0
2018-May-22 19:25N 01°16' E 103°44'0 0.0
2018-May-22 18:55N 01°16' E 103°44'0 0.0
2018-May-22 18:25N 01°16' E 103°44'0 0.0
2018-May-22 17:55N 01°16' E 103°44'0 0.0
2018-May-22 17:25N 01°16' E 103°44'0 0.0
2018-May-22 16:55N 01°16' E 103°44'0 0.0
2018-May-22 16:28N 01°16' E 103°44'0 0.0
2018-May-22 15:58N 01°16' E 103°44'0 0.0
2018-May-22 15:28N 01°16' E 103°44'0 0.0
2018-May-22 14:55N 01°16' E 103°44'0 0.0
2018-May-22 14:28N 01°16' E 103°44'0 0.0
2018-May-22 13:58N 01°16' E 103°44'0 0.0
2018-May-22 13:28N 01°16' E 103°44'0 0.0
2018-May-22 12:46N 01°16' E 103°44'0 0.0
2018-May-22 12:22N 01°16' E 103°44'0 0.0
2018-May-22 11:58N 01°16' E 103°44'0 0.0
2018-May-22 11:22N 01°16' E 103°44'0 0.0
2018-May-22 10:55N 01°16' E 103°44'0 0.0
2018-May-22 10:16N 01°16' E 103°44'0 0.0
2018-May-22 09:58N 01°16' E 103°44'0 0.0
2018-May-22 05:10N 01°16' E 103°44'0 0.0
2018-May-22 04:49N 01°16' E 103°44'0 0.0
2018-May-22 04:07N 01°16' E 103°44'0 0.0
2018-May-22 03:43N 01°16' E 103°44'0 0.0
2018-May-22 03:25N 01°16' E 103°44'0 0.0
2018-May-22 02:58N 01°16' E 103°44'0 0.0
2018-May-22 02:19N 01°16' E 103°44'0 0.0
2018-May-22 01:58N 01°16' E 103°44'0 0.0
2018-May-22 01:25N 01°16' E 103°44'0 0.0
2018-May-22 00:52N 01°16' E 103°44'0 0.0
2018-May-22 00:25N 01°16' E 103°44'0 0.0
2018-May-21 23:55N 01°16' E 103°44'0 0.0
2018-May-21 23:28N 01°16' E 103°44'0 0.0
2018-May-21 22:55N 01°16' E 103°44'0 0.0
2018-May-21 22:25N 01°16' E 103°44'0 0.0
2018-May-21 21:58N 01°16' E 103°44'0 0.0
2018-May-21 21:25N 01°16' E 103°44'0 0.0
2018-May-21 20:49N 01°16' E 103°44'0 0.0
2018-May-21 20:28N 01°16' E 103°44'0 0.0
2018-May-21 19:55N 01°16' E 103°44'0 0.0
2018-May-21 19:25N 01°16' E 103°44'0 0.0
2018-May-21 18:55N 01°16' E 103°44'0 0.0
2018-May-21 18:28N 01°16' E 103°44'0 0.0
2018-May-21 17:49N 01°16' E 103°44'0 0.0
2018-May-21 17:25N 01°16' E 103°44'0 0.0
2018-May-21 16:58N 01°16' E 103°44'0 0.0
2018-May-21 16:25N 01°16' E 103°44'0 0.0
2018-May-21 15:55N 01°16' E 103°44'0 0.9
2018-May-21 15:30N 01°16' E 103°45'5 8.8
2018-May-21 15:00N 01°13' E 103°48'612.8
2018-May-21 14:30N 01°14' E 103°54'4 0.3
2018-May-21 01:01N 01°17' E 103°56'0 0.0
2018-May-21 00:55N 01°17' E 103°56'0 0.0
2018-May-21 00:28N 01°17' E 103°56'0 0.0
2018-May-20 23:58N 01°17' E 103°56'0 0.0
2018-May-20 23:28N 01°17' E 103°56'0 0.0
2018-May-20 22:58N 01°17' E 103°56'0 0.0
2018-May-20 22:28N 01°17' E 103°56'0 0.0
2018-May-20 21:59N 01°17' E 103°56'0 0.0
2018-May-20 21:10N 01°17' E 103°56'0 0.0
2018-May-20 20:55N 01°17' E 103°56'0 0.0
2018-May-20 20:28N 01°17' E 103°56'0 0.1
2018-May-20 19:55N 01°17' E 103°56'0 0.0
2018-May-20 19:25N 01°17' E 103°56'0 0.1
2018-May-20 18:52N 01°17' E 103°56'0 0.0
2018-May-20 18:28N 01°17' E 103°56'0 0.2
2018-May-20 17:59N 01°17' E 103°56'2 3.7
2018-May-20 17:30N 01°16' E 103°58'4 9.1
2018-May-20 17:00N 01°16' E 104°02'612.2
2018-May-20 16:29N 01°17' E 104°08'611.0
2018-May-20 15:58N 01°17' E 104°14'612.0
2018-May-20 15:28N 01°19' E 104°20'713.2
2018-May-20 14:58N 01°23' E 104°25'  

Dump ship's entire track history